sensor_id;sensor_type;location;lat;lon;timestamp;temperature;humidity
51950;DHT22;37974;53.218;6.640;2024-03-02T00:02:19;6.60;99.90
51950;DHT22;37974;53.218;6.640;2024-03-02T00:04:45;6.60;99.90
51950;DHT22;37974;53.218;6.640;2024-03-02T00:07:14;6.50;99.90
51950;DHT22;37974;53.218;6.640;2024-03-02T00:09:40;6.50;99.90
51950;DHT22;37974;53.218;6.640;2024-03-02T00:12:06;6.50;99.90
51950;DHT22;37974;53.218;6.640;2024-03-02T00:14:31;6.50;99.90
51950;DHT22;37974;53.218;6.640;2024-03-02T00:16:57;6.50;99.90
51950;DHT22;37974;53.218;6.640;2024-03-02T00:19:24;6.50;99.90
51950;DHT22;37974;53.218;6.640;2024-03-02T00:21:50;6.60;99.90
51950;DHT22;37974;53.218;6.640;2024-03-02T00:24:26;6.50;99.90
51950;DHT22;37974;53.218;6.640;2024-03-02T00:26:56;6.60;99.90
51950;DHT22;37974;53.218;6.640;2024-03-02T00:29:21;6.60;99.90
51950;DHT22;37974;53.218;6.640;2024-03-02T00:31:47;6.60;99.90
51950;DHT22;37974;53.218;6.640;2024-03-02T00:34:14;6.60;99.90
51950;DHT22;37974;53.218;6.640;2024-03-02T00:36:41;6.60;99.90
51950;DHT22;37974;53.218;6.640;2024-03-02T00:39:07;6.60;99.90
51950;DHT22;37974;53.218;6.640;2024-03-02T00:41:34;6.60;99.90
51950;DHT22;37974;53.218;6.640;2024-03-02T00:44:08;6.60;99.90
51950;DHT22;37974;53.218;6.640;2024-03-02T00:46:36;6.60;99.90
51950;DHT22;37974;53.218;6.640;2024-03-02T00:49:04;6.60;99.90
51950;DHT22;37974;53.218;6.640;2024-03-02T00:51:32;6.50;99.90
51950;DHT22;37974;53.218;6.640;2024-03-02T00:54:01;6.60;99.90
51950;DHT22;37974;53.218;6.640;2024-03-02T00:56:30;6.60;99.90
51950;DHT22;37974;53.218;6.640;2024-03-02T00:58:56;6.60;99.90
51950;DHT22;37974;53.218;6.640;2024-03-02T01:01:21;6.60;99.90
51950;DHT22;37974;53.218;6.640;2024-03-02T01:03:48;6.60;99.90
51950;DHT22;37974;53.218;6.640;2024-03-02T01:06:15;6.60;99.90
51950;DHT22;37974;53.218;6.640;2024-03-02T01:08:41;6.60;99.90
51950;DHT22;37974;53.218;6.640;2024-03-02T01:11:08;6.60;99.90
51950;DHT22;37974;53.218;6.640;2024-03-02T01:13:34;6.60;99.90
51950;DHT22;37974;53.218;6.640;2024-03-02T01:16:00;6.60;99.90
51950;DHT22;37974;53.218;6.640;2024-03-02T01:18:26;6.60;99.90
51950;DHT22;37974;53.218;6.640;2024-03-02T01:20:52;6.60;99.90
51950;DHT22;37974;53.218;6.640;2024-03-02T01:23:19;6.60;99.90
51950;DHT22;37974;53.218;6.640;2024-03-02T01:25:46;6.70;99.90
51950;DHT22;37974;53.218;6.640;2024-03-02T01:28:12;6.70;99.90
51950;DHT22;37974;53.218;6.640;2024-03-02T01:30:38;6.70;99.90
51950;DHT22;37974;53.218;6.640;2024-03-02T01:33:04;6.70;99.90
51950;DHT22;37974;53.218;6.640;2024-03-02T01:35:31;6.70;99.90
51950;DHT22;37974;53.218;6.640;2024-03-02T01:37:57;6.70;99.90
51950;DHT22;37974;53.218;6.640;2024-03-02T01:40:23;6.70;99.90
51950;DHT22;37974;53.218;6.640;2024-03-02T01:42:52;6.80;99.90
51950;DHT22;37974;53.218;6.640;2024-03-02T01:45:19;6.80;99.90
51950;DHT22;37974;53.218;6.640;2024-03-02T01:47:45;6.80;99.90
51950;DHT22;37974;53.218;6.640;2024-03-02T01:50:11;6.80;99.90
51950;DHT22;37974;53.218;6.640;2024-03-02T01:52:37;6.90;99.90
51950;DHT22;37974;53.218;6.640;2024-03-02T01:55:03;6.80;99.90
51950;DHT22;37974;53.218;6.640;2024-03-02T01:57:29;6.90;99.90
51950;DHT22;37974;53.218;6.640;2024-03-02T01:59:56;6.90;99.90
51950;DHT22;37974;53.218;6.640;2024-03-02T02:02:22;6.90;99.90
51950;DHT22;37974;53.218;6.640;2024-03-02T02:04:47;6.80;99.90
51950;DHT22;37974;53.218;6.640;2024-03-02T02:07:13;6.90;99.90
51950;DHT22;37974;53.218;6.640;2024-03-02T02:09:41;6.80;99.90
51950;DHT22;37974;53.218;6.640;2024-03-02T02:12:08;6.80;99.90
51950;DHT22;37974;53.218;6.640;2024-03-02T02:14:34;6.80;99.90
51950;DHT22;37974;53.218;6.640;2024-03-02T02:17:00;6.80;99.90
51950;DHT22;37974;53.218;6.640;2024-03-02T02:19:25;6.80;99.90
51950;DHT22;37974;53.218;6.640;2024-03-02T02:21:51;6.80;99.90
51950;DHT22;37974;53.218;6.640;2024-03-02T02:24:17;6.80;99.90
51950;DHT22;37974;53.218;6.640;2024-03-02T02:26:42;6.80;99.90
51950;DHT22;37974;53.218;6.640;2024-03-02T02:29:08;6.80;99.90
51950;DHT22;37974;53.218;6.640;2024-03-02T02:31:39;6.80;99.90
51950;DHT22;37974;53.218;6.640;2024-03-02T02:34:05;6.80;99.90
51950;DHT22;37974;53.218;6.640;2024-03-02T02:36:34;6.80;99.90
51950;DHT22;37974;53.218;6.640;2024-03-02T02:39:03;6.80;99.90
51950;DHT22;37974;53.218;6.640;2024-03-02T02:41:29;6.80;99.90
51950;DHT22;37974;53.218;6.640;2024-03-02T02:43:55;6.80;99.90
51950;DHT22;37974;53.218;6.640;2024-03-02T02:46:21;6.80;99.90
51950;DHT22;37974;53.218;6.640;2024-03-02T02:48:47;6.80;99.90
51950;DHT22;37974;53.218;6.640;2024-03-02T02:51:12;6.90;99.90
51950;DHT22;37974;53.218;6.640;2024-03-02T02:53:38;6.90;99.90
51950;DHT22;37974;53.218;6.640;2024-03-02T02:56:06;6.90;99.90
51950;DHT22;37974;53.218;6.640;2024-03-02T02:58:32;6.90;99.90
51950;DHT22;37974;53.218;6.640;2024-03-02T03:00:58;7.00;99.90
51950;DHT22;37974;53.218;6.640;2024-03-02T03:03:23;7.00;99.90
51950;DHT22;37974;53.218;6.640;2024-03-02T03:05:49;7.00;99.90
51950;DHT22;37974;53.218;6.640;2024-03-02T03:08:15;7.00;99.90
51950;DHT22;37974;53.218;6.640;2024-03-02T03:10:42;7.00;99.90
51950;DHT22;37974;53.218;6.640;2024-03-02T03:13:08;7.10;99.90
51950;DHT22;37974;53.218;6.640;2024-03-02T03:15:35;7.10;99.90
51950;DHT22;37974;53.218;6.640;2024-03-02T03:18:02;7.10;99.90
51950;DHT22;37974;53.218;6.640;2024-03-02T03:20:29;7.10;99.90
51950;DHT22;37974;53.218;6.640;2024-03-02T03:22:56;7.10;99.90
51950;DHT22;37974;53.218;6.640;2024-03-02T03:25:21;7.10;99.90
51950;DHT22;37974;53.218;6.640;2024-03-02T03:27:47;7.10;99.90
51950;DHT22;37974;53.218;6.640;2024-03-02T03:30:13;7.10;99.90
51950;DHT22;37974;53.218;6.640;2024-03-02T03:32:39;7.10;99.90
51950;DHT22;37974;53.218;6.640;2024-03-02T03:35:05;7.10;99.90
51950;DHT22;37974;53.218;6.640;2024-03-02T03:37:31;7.10;99.90
51950;DHT22;37974;53.218;6.640;2024-03-02T03:40:00;7.10;99.90
51950;DHT22;37974;53.218;6.640;2024-03-02T03:42:26;7.10;99.90
51950;DHT22;37974;53.218;6.640;2024-03-02T03:44:52;7.10;99.90
51950;DHT22;37974;53.218;6.640;2024-03-02T03:47:18;7.10;99.90
51950;DHT22;37974;53.218;6.640;2024-03-02T03:49:43;7.10;99.90
51950;DHT22;37974;53.218;6.640;2024-03-02T03:52:09;7.20;99.90
51950;DHT22;37974;53.218;6.640;2024-03-02T03:54:35;7.20;99.90
51950;DHT22;37974;53.218;6.640;2024-03-02T03:57:02;7.20;99.90
51950;DHT22;37974;53.218;6.640;2024-03-02T03:59:28;7.10;99.90
51950;DHT22;37974;53.218;6.640;2024-03-02T04:01:54;7.10;99.90
51950;DHT22;37974;53.218;6.640;2024-03-02T04:04:19;7.10;99.90
51950;DHT22;37974;53.218;6.640;2024-03-02T04:06:45;7.10;99.90
51950;DHT22;37974;53.218;6.640;2024-03-02T04:09:11;7.10;99.90
51950;DHT22;37974;53.218;6.640;2024-03-02T04:11:36;7.00;99.90
51950;DHT22;37974;53.218;6.640;2024-03-02T04:14:02;7.00;99.90
51950;DHT22;37974;53.218;6.640;2024-03-02T04:16:28;7.00;99.90
51950;DHT22;37974;53.218;6.640;2024-03-02T04:18:54;7.00;99.90
51950;DHT22;37974;53.218;6.640;2024-03-02T04:21:20;6.90;99.90
51950;DHT22;37974;53.218;6.640;2024-03-02T04:23:45;6.80;99.90
51950;DHT22;37974;53.218;6.640;2024-03-02T04:26:11;6.80;99.90
51950;DHT22;37974;53.218;6.640;2024-03-02T04:28:37;6.80;99.90
51950;DHT22;37974;53.218;6.640;2024-03-02T04:31:03;6.70;99.90
51950;DHT22;37974;53.218;6.640;2024-03-02T04:33:29;6.80;99.90
51950;DHT22;37974;53.218;6.640;2024-03-02T04:35:54;6.80;99.90
51950;DHT22;37974;53.218;6.640;2024-03-02T04:38:20;6.90;99.90
51950;DHT22;37974;53.218;6.640;2024-03-02T04:40:46;6.80;99.90
51950;DHT22;37974;53.218;6.640;2024-03-02T04:43:11;6.90;99.90
51950;DHT22;37974;53.218;6.640;2024-03-02T04:45:41;6.90;99.90
51950;DHT22;37974;53.218;6.640;2024-03-02T04:48:06;6.90;99.90
51950;DHT22;37974;53.218;6.640;2024-03-02T04:50:32;6.90;99.90
51950;DHT22;37974;53.218;6.640;2024-03-02T04:52:58;6.90;99.90
51950;DHT22;37974;53.218;6.640;2024-03-02T04:55:23;6.90;99.90
51950;DHT22;37974;53.218;6.640;2024-03-02T04:58:10;7.00;99.90
51950;DHT22;37974;53.218;6.640;2024-03-02T05:00:36;7.00;99.90
51950;DHT22;37974;53.218;6.640;2024-03-02T05:03:03;7.00;99.90
51950;DHT22;37974;53.218;6.640;2024-03-02T05:05:29;7.00;99.90
51950;DHT22;37974;53.218;6.640;2024-03-02T05:07:54;6.90;99.90
51950;DHT22;37974;53.218;6.640;2024-03-02T05:10:20;6.90;99.90
51950;DHT22;37974;53.218;6.640;2024-03-02T05:12:46;6.80;99.90
51950;DHT22;37974;53.218;6.640;2024-03-02T05:15:13;6.70;99.90
51950;DHT22;37974;53.218;6.640;2024-03-02T05:17:40;6.70;99.90
51950;DHT22;37974;53.218;6.640;2024-03-02T05:20:08;6.70;99.90
51950;DHT22;37974;53.218;6.640;2024-03-02T05:22:34;6.70;99.90
51950;DHT22;37974;53.218;6.640;2024-03-02T05:25:01;6.70;99.90
51950;DHT22;37974;53.218;6.640;2024-03-02T05:27:27;6.70;99.90
51950;DHT22;37974;53.218;6.640;2024-03-02T05:29:53;6.70;99.90
51950;DHT22;37974;53.218;6.640;2024-03-02T05:32:18;6.80;99.90
51950;DHT22;37974;53.218;6.640;2024-03-02T05:34:44;6.80;99.90
51950;DHT22;37974;53.218;6.640;2024-03-02T05:37:10;6.80;99.90
51950;DHT22;37974;53.218;6.640;2024-03-02T05:39:35;6.70;99.90
51950;DHT22;37974;53.218;6.640;2024-03-02T05:42:01;6.70;99.90
51950;DHT22;37974;53.218;6.640;2024-03-02T05:44:27;6.70;99.90
51950;DHT22;37974;53.218;6.640;2024-03-02T05:46:53;6.70;99.90
51950;DHT22;37974;53.218;6.640;2024-03-02T05:49:18;6.70;99.90
51950;DHT22;37974;53.218;6.640;2024-03-02T05:51:44;6.70;99.90
51950;DHT22;37974;53.218;6.640;2024-03-02T05:54:10;6.80;99.90
51950;DHT22;37974;53.218;6.640;2024-03-02T05:56:36;6.80;99.90
51950;DHT22;37974;53.218;6.640;2024-03-02T05:59:01;6.80;99.90
51950;DHT22;37974;53.218;6.640;2024-03-02T06:01:34;6.80;99.90
51950;DHT22;37974;53.218;6.640;2024-03-02T06:04:00;6.80;99.90
51950;DHT22;37974;53.218;6.640;2024-03-02T06:06:26;6.80;99.90
51950;DHT22;37974;53.218;6.640;2024-03-02T06:08:52;6.80;99.90
51950;DHT22;37974;53.218;6.640;2024-03-02T06:11:19;6.80;99.90
51950;DHT22;37974;53.218;6.640;2024-03-02T06:13:45;6.80;99.90
51950;DHT22;37974;53.218;6.640;2024-03-02T06:16:11;6.80;99.90
51950;DHT22;37974;53.218;6.640;2024-03-02T06:18:36;6.80;99.90
51950;DHT22;37974;53.218;6.640;2024-03-02T06:21:02;6.80;99.90
51950;DHT22;37974;53.218;6.640;2024-03-02T06:23:29;6.80;99.90
51950;DHT22;37974;53.218;6.640;2024-03-02T06:25:54;6.70;99.90
51950;DHT22;37974;53.218;6.640;2024-03-02T06:28:20;6.80;99.90
51950;DHT22;37974;53.218;6.640;2024-03-02T06:30:46;6.80;99.90
51950;DHT22;37974;53.218;6.640;2024-03-02T06:33:12;6.80;99.90
51950;DHT22;37974;53.218;6.640;2024-03-02T06:35:38;6.80;99.90
51950;DHT22;37974;53.218;6.640;2024-03-02T06:38:04;6.80;99.90
51950;DHT22;37974;53.218;6.640;2024-03-02T06:40:30;6.80;99.90
51950;DHT22;37974;53.218;6.640;2024-03-02T06:42:55;6.80;99.90
51950;DHT22;37974;53.218;6.640;2024-03-02T06:45:21;6.80;99.90
51950;DHT22;37974;53.218;6.640;2024-03-02T06:47:47;6.80;99.90
51950;DHT22;37974;53.218;6.640;2024-03-02T06:50:13;6.70;99.90
51950;DHT22;37974;53.218;6.640;2024-03-02T06:52:38;6.80;99.90
51950;DHT22;37974;53.218;6.640;2024-03-02T06:55:04;6.70;99.90
51950;DHT22;37974;53.218;6.640;2024-03-02T06:57:31;6.70;99.90
51950;DHT22;37974;53.218;6.640;2024-03-02T06:59:56;6.60;99.90
51950;DHT22;37974;53.218;6.640;2024-03-02T07:02:24;6.60;99.90
51950;DHT22;37974;53.218;6.640;2024-03-02T07:04:53;6.60;99.90
51950;DHT22;37974;53.218;6.640;2024-03-02T07:07:19;6.50;99.90
51950;DHT22;37974;53.218;6.640;2024-03-02T07:09:45;6.50;99.90
51950;DHT22;37974;53.218;6.640;2024-03-02T07:12:11;6.40;99.90
51950;DHT22;37974;53.218;6.640;2024-03-02T07:14:36;6.40;99.90
51950;DHT22;37974;53.218;6.640;2024-03-02T07:17:21;6.40;99.90
51950;DHT22;37974;53.218;6.640;2024-03-02T07:19:46;6.40;99.90
51950;DHT22;37974;53.218;6.640;2024-03-02T07:22:13;6.40;99.90
51950;DHT22;37974;53.218;6.640;2024-03-02T07:24:42;6.40;99.90
51950;DHT22;37974;53.218;6.640;2024-03-02T07:27:09;6.40;99.90
51950;DHT22;37974;53.218;6.640;2024-03-02T07:29:35;6.50;99.90
51950;DHT22;37974;53.218;6.640;2024-03-02T07:32:01;6.60;99.90
51950;DHT22;37974;53.218;6.640;2024-03-02T07:34:27;6.70;99.90
51950;DHT22;37974;53.218;6.640;2024-03-02T07:36:54;6.70;99.90
51950;DHT22;37974;53.218;6.640;2024-03-02T07:39:20;6.80;99.90
51950;DHT22;37974;53.218;6.640;2024-03-02T07:41:47;6.90;99.90
51950;DHT22;37974;53.218;6.640;2024-03-02T07:44:13;6.90;99.90
51950;DHT22;37974;53.218;6.640;2024-03-02T07:46:43;6.90;99.90
51950;DHT22;37974;53.218;6.640;2024-03-02T07:49:09;7.00;99.90
51950;DHT22;37974;53.218;6.640;2024-03-02T07:51:35;7.00;99.90
51950;DHT22;37974;53.218;6.640;2024-03-02T07:54:02;7.10;99.90
51950;DHT22;37974;53.218;6.640;2024-03-02T07:56:28;7.10;99.90
51950;DHT22;37974;53.218;6.640;2024-03-02T07:58:54;7.10;99.90
51950;DHT22;37974;53.218;6.640;2024-03-02T08:01:20;7.10;99.90
51950;DHT22;37974;53.218;6.640;2024-03-02T08:03:45;7.10;99.90
51950;DHT22;37974;53.218;6.640;2024-03-02T08:06:18;7.10;99.90
51950;DHT22;37974;53.218;6.640;2024-03-02T08:08:47;7.10;99.90
51950;DHT22;37974;53.218;6.640;2024-03-02T08:11:12;7.10;99.90
51950;DHT22;37974;53.218;6.640;2024-03-02T08:13:38;7.20;99.90
51950;DHT22;37974;53.218;6.640;2024-03-02T08:16:05;7.10;99.90
51950;DHT22;37974;53.218;6.640;2024-03-02T08:18:33;7.20;99.90
51950;DHT22;37974;53.218;6.640;2024-03-02T08:20:59;7.20;99.90
51950;DHT22;37974;53.218;6.640;2024-03-02T08:23:25;7.20;99.90
51950;DHT22;37974;53.218;6.640;2024-03-02T08:25:51;7.30;99.90
51950;DHT22;37974;53.218;6.640;2024-03-02T08:28:17;7.30;99.90
51950;DHT22;37974;53.218;6.640;2024-03-02T08:30:43;7.40;99.90
51950;DHT22;37974;53.218;6.640;2024-03-02T08:33:08;7.40;99.90
51950;DHT22;37974;53.218;6.640;2024-03-02T08:35:34;7.60;99.90
51950;DHT22;37974;53.218;6.640;2024-03-02T08:38:03;7.60;99.90
51950;DHT22;37974;53.218;6.640;2024-03-02T08:40:30;7.70;99.90
51950;DHT22;37974;53.218;6.640;2024-03-02T08:42:55;7.80;99.90
51950;DHT22;37974;53.218;6.640;2024-03-02T08:45:21;7.90;99.90
51950;DHT22;37974;53.218;6.640;2024-03-02T08:47:47;8.00;99.90
51950;DHT22;37974;53.218;6.640;2024-03-02T08:50:13;8.10;99.90
51950;DHT22;37974;53.218;6.640;2024-03-02T08:52:39;8.20;99.90
51950;DHT22;37974;53.218;6.640;2024-03-02T08:55:06;8.20;99.90
51950;DHT22;37974;53.218;6.640;2024-03-02T08:57:33;8.30;99.90
51950;DHT22;37974;53.218;6.640;2024-03-02T08:59:59;8.50;99.90
51950;DHT22;37974;53.218;6.640;2024-03-02T09:02:25;8.60;99.90
51950;DHT22;37974;53.218;6.640;2024-03-02T09:04:51;8.80;99.90
51950;DHT22;37974;53.218;6.640;2024-03-02T09:07:17;8.80;99.90
51950;DHT22;37974;53.218;6.640;2024-03-02T09:09:43;8.80;99.90
51950;DHT22;37974;53.218;6.640;2024-03-02T09:12:09;8.80;99.90
51950;DHT22;37974;53.218;6.640;2024-03-02T09:14:35;8.80;99.90
51950;DHT22;37974;53.218;6.640;2024-03-02T09:17:02;8.80;99.90
51950;DHT22;37974;53.218;6.640;2024-03-02T09:19:29;8.80;99.90
51950;DHT22;37974;53.218;6.640;2024-03-02T09:21:54;8.90;99.90
51950;DHT22;37974;53.218;6.640;2024-03-02T09:24:21;9.10;99.90
51950;DHT22;37974;53.218;6.640;2024-03-02T09:26:47;9.20;99.90
51950;DHT22;37974;53.218;6.640;2024-03-02T09:29:13;9.20;99.90
51950;DHT22;37974;53.218;6.640;2024-03-02T09:31:40;9.30;99.90
51950;DHT22;37974;53.218;6.640;2024-03-02T09:34:06;9.30;99.90
51950;DHT22;37974;53.218;6.640;2024-03-02T09:36:33;9.30;99.90
51950;DHT22;37974;53.218;6.640;2024-03-02T09:38:58;9.30;99.90
51950;DHT22;37974;53.218;6.640;2024-03-02T09:41:24;9.30;99.90
51950;DHT22;37974;53.218;6.640;2024-03-02T09:43:51;9.30;99.90
51950;DHT22;37974;53.218;6.640;2024-03-02T09:46:17;9.40;99.90
51950;DHT22;37974;53.218;6.640;2024-03-02T09:48:44;9.50;99.90
51950;DHT22;37974;53.218;6.640;2024-03-02T09:51:10;9.60;99.90
51950;DHT22;37974;53.218;6.640;2024-03-02T09:53:37;9.70;99.90
51950;DHT22;37974;53.218;6.640;2024-03-02T09:56:03;9.70;99.90
51950;DHT22;37974;53.218;6.640;2024-03-02T09:58:30;9.70;99.90
51950;DHT22;37974;53.218;6.640;2024-03-02T10:00:56;9.80;99.90
51950;DHT22;37974;53.218;6.640;2024-03-02T10:03:23;9.90;99.90
51950;DHT22;37974;53.218;6.640;2024-03-02T10:05:50;9.90;99.90
51950;DHT22;37974;53.218;6.640;2024-03-02T10:08:17;10.00;99.90
51950;DHT22;37974;53.218;6.640;2024-03-02T10:10:42;10.00;99.90
51950;DHT22;37974;53.218;6.640;2024-03-02T10:13:10;10.10;99.90
51950;DHT22;37974;53.218;6.640;2024-03-02T10:15:38;10.10;99.90
51950;DHT22;37974;53.218;6.640;2024-03-02T10:18:04;10.20;99.90
51950;DHT22;37974;53.218;6.640;2024-03-02T10:20:30;10.20;99.90
51950;DHT22;37974;53.218;6.640;2024-03-02T10:23:10;10.30;99.90
51950;DHT22;37974;53.218;6.640;2024-03-02T10:25:37;10.30;99.90
51950;DHT22;37974;53.218;6.640;2024-03-02T10:28:02;10.40;99.90
51950;DHT22;37974;53.218;6.640;2024-03-02T10:30:32;10.40;99.90
51950;DHT22;37974;53.218;6.640;2024-03-02T10:32:58;10.20;99.90
51950;DHT22;37974;53.218;6.640;2024-03-02T10:35:24;10.30;99.90
51950;DHT22;37974;53.218;6.640;2024-03-02T10:37:52;10.20;99.90
51950;DHT22;37974;53.218;6.640;2024-03-02T10:40:18;10.20;99.90
51950;DHT22;37974;53.218;6.640;2024-03-02T10:42:45;10.30;99.90
51950;DHT22;37974;53.218;6.640;2024-03-02T10:45:12;10.40;99.90
51950;DHT22;37974;53.218;6.640;2024-03-02T10:47:39;10.40;99.90
51950;DHT22;37974;53.218;6.640;2024-03-02T10:50:06;10.40;99.90
51950;DHT22;37974;53.218;6.640;2024-03-02T10:52:35;10.40;99.90
51950;DHT22;37974;53.218;6.640;2024-03-02T10:55:01;10.40;99.90
51950;DHT22;37974;53.218;6.640;2024-03-02T10:57:33;10.40;99.90
51950;DHT22;37974;53.218;6.640;2024-03-02T11:00:03;10.50;99.90
51950;DHT22;37974;53.218;6.640;2024-03-02T11:02:31;10.60;99.90
51950;DHT22;37974;53.218;6.640;2024-03-02T11:04:59;10.60;99.90
51950;DHT22;37974;53.218;6.640;2024-03-02T11:07:27;10.60;99.90
51950;DHT22;37974;53.218;6.640;2024-03-02T11:09:59;10.50;99.90
51950;DHT22;37974;53.218;6.640;2024-03-02T11:12:31;10.50;99.90
51950;DHT22;37974;53.218;6.640;2024-03-02T11:14:58;10.60;99.90
51950;DHT22;37974;53.218;6.640;2024-03-02T11:17:25;10.70;99.90
51950;DHT22;37974;53.218;6.640;2024-03-02T11:19:51;10.70;99.90
51950;DHT22;37974;53.218;6.640;2024-03-02T11:22:17;10.70;99.90
51950;DHT22;37974;53.218;6.640;2024-03-02T11:24:49;10.70;99.90
51950;DHT22;37974;53.218;6.640;2024-03-02T11:33:05;10.80;99.90
51950;DHT22;37974;53.218;6.640;2024-03-02T11:35:35;10.80;99.90
51950;DHT22;37974;53.218;6.640;2024-03-02T11:38:01;10.80;99.90
51950;DHT22;37974;53.218;6.640;2024-03-02T11:40:29;10.80;99.90
51950;DHT22;37974;53.218;6.640;2024-03-02T11:42:55;10.60;99.90
51950;DHT22;37974;53.218;6.640;2024-03-02T11:45:25;10.50;99.90
51950;DHT22;37974;53.218;6.640;2024-03-02T11:47:54;10.50;99.90
51950;DHT22;37974;53.218;6.640;2024-03-02T11:52:56;10.60;99.90
51950;DHT22;37974;53.218;6.640;2024-03-02T11:55:23;10.70;99.90
51950;DHT22;37974;53.218;6.640;2024-03-02T11:57:52;10.80;99.90
51950;DHT22;37974;53.218;6.640;2024-03-02T12:00:18;10.80;99.90
51950;DHT22;37974;53.218;6.640;2024-03-02T12:02:46;10.90;99.90
51950;DHT22;37974;53.218;6.640;2024-03-02T12:05:16;11.00;99.90
51950;DHT22;37974;53.218;6.640;2024-03-02T12:07:42;11.10;99.90
51950;DHT22;37974;53.218;6.640;2024-03-02T12:10:08;11.10;99.90
51950;DHT22;37974;53.218;6.640;2024-03-02T12:12:34;11.10;99.90
51950;DHT22;37974;53.218;6.640;2024-03-02T12:15:00;11.20;99.90
51950;DHT22;37974;53.218;6.640;2024-03-02T12:17:26;11.30;99.90
51950;DHT22;37974;53.218;6.640;2024-03-02T12:19:52;11.30;99.90
51950;DHT22;37974;53.218;6.640;2024-03-02T12:22:18;11.40;99.90
51950;DHT22;37974;53.218;6.640;2024-03-02T12:24:44;11.40;99.90
51950;DHT22;37974;53.218;6.640;2024-03-02T12:27:12;11.40;99.90
51950;DHT22;37974;53.218;6.640;2024-03-02T12:29:38;11.40;99.90
51950;DHT22;37974;53.218;6.640;2024-03-02T12:32:05;11.30;99.90
51950;DHT22;37974;53.218;6.640;2024-03-02T12:34:31;11.30;99.90
51950;DHT22;37974;53.218;6.640;2024-03-02T12:36:57;11.30;99.90
51950;DHT22;37974;53.218;6.640;2024-03-02T12:39:23;11.30;99.90
51950;DHT22;37974;53.218;6.640;2024-03-02T12:41:50;11.30;99.90
51950;DHT22;37974;53.218;6.640;2024-03-02T12:44:17;11.30;99.90
51950;DHT22;37974;53.218;6.640;2024-03-02T12:46:44;11.30;99.90
51950;DHT22;37974;53.218;6.640;2024-03-02T12:49:12;11.30;99.90
51950;DHT22;37974;53.218;6.640;2024-03-02T12:51:40;11.30;99.90
51950;DHT22;37974;53.218;6.640;2024-03-02T12:54:07;11.30;99.90
51950;DHT22;37974;53.218;6.640;2024-03-02T12:56:33;11.40;99.90
51950;DHT22;37974;53.218;6.640;2024-03-02T12:59:00;11.50;99.90
51950;DHT22;37974;53.218;6.640;2024-03-02T13:01:26;11.50;99.90
51950;DHT22;37974;53.218;6.640;2024-03-02T13:03:53;11.50;99.90
51950;DHT22;37974;53.218;6.640;2024-03-02T13:06:21;11.50;99.90
51950;DHT22;37974;53.218;6.640;2024-03-02T13:08:47;11.50;99.90
51950;DHT22;37974;53.218;6.640;2024-03-02T13:11:13;11.60;99.90
51950;DHT22;37974;53.218;6.640;2024-03-02T13:13:39;11.70;99.90
51950;DHT22;37974;53.218;6.640;2024-03-02T13:16:10;11.80;99.90
51950;DHT22;37974;53.218;6.640;2024-03-02T13:18:37;11.70;99.90
51950;DHT22;37974;53.218;6.640;2024-03-02T13:21:03;11.50;99.90
51950;DHT22;37974;53.218;6.640;2024-03-02T13:23:29;11.50;99.90
51950;DHT22;37974;53.218;6.640;2024-03-02T13:25:57;11.50;99.90
51950;DHT22;37974;53.218;6.640;2024-03-02T13:28:25;11.60;99.90
51950;DHT22;37974;53.218;6.640;2024-03-02T13:30:51;11.60;99.90
51950;DHT22;37974;53.218;6.640;2024-03-02T13:33:16;11.70;99.90
51950;DHT22;37974;53.218;6.640;2024-03-02T13:35:49;11.70;99.90
51950;DHT22;37974;53.218;6.640;2024-03-02T13:38:17;11.70;99.90
51950;DHT22;37974;53.218;6.640;2024-03-02T13:40:43;11.80;99.90
51950;DHT22;37974;53.218;6.640;2024-03-02T13:43:09;11.90;99.90
51950;DHT22;37974;53.218;6.640;2024-03-02T13:45:35;11.90;99.90
51950;DHT22;37974;53.218;6.640;2024-03-02T13:48:02;11.90;99.90
51950;DHT22;37974;53.218;6.640;2024-03-02T13:50:29;11.90;99.90
51950;DHT22;37974;53.218;6.640;2024-03-02T13:52:56;11.90;99.90
51950;DHT22;37974;53.218;6.640;2024-03-02T13:55:22;11.90;99.90
51950;DHT22;37974;53.218;6.640;2024-03-02T13:57:48;11.90;99.90
51950;DHT22;37974;53.218;6.640;2024-03-02T14:00:16;11.80;99.90
51950;DHT22;37974;53.218;6.640;2024-03-02T14:02:43;11.70;99.90
51950;DHT22;37974;53.218;6.640;2024-03-02T14:05:09;11.70;99.90
51950;DHT22;37974;53.218;6.640;2024-03-02T14:07:41;11.60;99.90
51950;DHT22;37974;53.218;6.640;2024-03-02T14:10:07;11.60;99.90
51950;DHT22;37974;53.218;6.640;2024-03-02T14:12:33;11.60;99.90
51950;DHT22;37974;53.218;6.640;2024-03-02T14:14:59;11.60;99.90
51950;DHT22;37974;53.218;6.640;2024-03-02T14:17:28;11.70;99.90
51950;DHT22;37974;53.218;6.640;2024-03-02T14:19:53;11.70;99.90
51950;DHT22;37974;53.218;6.640;2024-03-02T14:22:20;11.70;99.90
51950;DHT22;37974;53.218;6.640;2024-03-02T14:24:46;11.70;99.90
51950;DHT22;37974;53.218;6.640;2024-03-02T14:27:13;11.70;99.90
51950;DHT22;37974;53.218;6.640;2024-03-02T14:29:40;11.70;99.90
51950;DHT22;37974;53.218;6.640;2024-03-02T14:32:06;11.70;99.90
51950;DHT22;37974;53.218;6.640;2024-03-02T14:34:32;11.70;99.90
51950;DHT22;37974;53.218;6.640;2024-03-02T14:36:58;11.80;99.90
51950;DHT22;37974;53.218;6.640;2024-03-02T14:39:25;11.80;99.90
51950;DHT22;37974;53.218;6.640;2024-03-02T14:41:51;11.80;99.90
51950;DHT22;37974;53.218;6.640;2024-03-02T14:44:17;11.80;99.90
51950;DHT22;37974;53.218;6.640;2024-03-02T14:46:43;11.80;99.90
51950;DHT22;37974;53.218;6.640;2024-03-02T14:49:12;11.80;99.90
51950;DHT22;37974;53.218;6.640;2024-03-02T14:51:38;11.90;99.90
51950;DHT22;37974;53.218;6.640;2024-03-02T14:54:04;11.90;99.90
51950;DHT22;37974;53.218;6.640;2024-03-02T14:56:30;11.80;99.90
51950;DHT22;37974;53.218;6.640;2024-03-02T14:58:55;11.80;99.90
51950;DHT22;37974;53.218;6.640;2024-03-02T15:01:21;11.80;99.90
51950;DHT22;37974;53.218;6.640;2024-03-02T15:03:49;11.70;99.90
51950;DHT22;37974;53.218;6.640;2024-03-02T15:06:15;11.70;99.90
51950;DHT22;37974;53.218;6.640;2024-03-02T15:08:41;11.70;99.90
51950;DHT22;37974;53.218;6.640;2024-03-02T15:11:08;11.70;99.90
51950;DHT22;37974;53.218;6.640;2024-03-02T15:13:34;11.80;99.90
51950;DHT22;37974;53.218;6.640;2024-03-02T15:16:00;11.80;99.90
51950;DHT22;37974;53.218;6.640;2024-03-02T15:18:26;11.80;99.90
51950;DHT22;37974;53.218;6.640;2024-03-02T15:20:53;11.80;99.90
51950;DHT22;37974;53.218;6.640;2024-03-02T15:23:18;11.80;99.90
51950;DHT22;37974;53.218;6.640;2024-03-02T15:25:44;11.80;99.90
51950;DHT22;37974;53.218;6.640;2024-03-02T15:28:10;11.70;99.90
51950;DHT22;37974;53.218;6.640;2024-03-02T15:30:35;11.70;99.90
51950;DHT22;37974;53.218;6.640;2024-03-02T15:33:03;11.70;99.90
51950;DHT22;37974;53.218;6.640;2024-03-02T15:35:29;11.60;99.90
51950;DHT22;37974;53.218;6.640;2024-03-02T15:37:55;11.60;99.90
51950;DHT22;37974;53.218;6.640;2024-03-02T15:40:20;11.60;99.90
51950;DHT22;37974;53.218;6.640;2024-03-02T15:42:46;11.60;99.90
51950;DHT22;37974;53.218;6.640;2024-03-02T15:45:12;11.60;99.90